createdAt,value
2022-10-31T00:04:17.947Z,13.00
2022-10-31T00:09:19.559Z,13.00
2022-10-31T00:14:21.271Z,13.00
2022-10-31T00:19:22.989Z,12.90
2022-10-31T00:24:24.667Z,12.80
2022-10-31T00:29:26.333Z,12.90
2022-10-31T00:34:27.983Z,13.00
2022-10-31T00:39:29.616Z,12.90
2022-10-31T00:44:31.242Z,12.80
2022-10-31T00:49:32.869Z,12.70
2022-10-31T00:54:34.557Z,12.60
2022-10-31T00:59:36.197Z,12.60
2022-10-31T01:04:37.832Z,12.60
2022-10-31T01:09:39.461Z,12.50
2022-10-31T01:14:45.652Z,12.50
2022-10-31T01:19:47.290Z,12.40
2022-10-31T01:24:49.033Z,12.40
2022-10-31T01:29:50.686Z,12.40
2022-10-31T01:34:52.311Z,12.30
2022-10-31T01:39:53.973Z,12.30
2022-10-31T01:44:59.046Z,12.30
2022-10-31T01:50:03.582Z,12.30
2022-10-31T01:55:30.833Z,12.30
2022-10-31T02:00:32.900Z,12.30
2022-10-31T02:05:34.843Z,12.20
2022-10-31T02:10:37.958Z,12.30
2022-10-31T02:15:41.137Z,12.30
2022-10-31T02:21:09.644Z,12.30
2022-10-31T02:26:23.196Z,12.20
2022-10-31T02:31:47.400Z,12.10
2022-10-31T02:36:59.896Z,12.10
2022-10-31T02:42:17.284Z,12.10
2022-10-31T02:47:23.685Z,12.10
2022-10-31T02:52:27.749Z,12.10
2022-10-31T02:57:35.519Z,12.00
2022-10-31T03:02:58.276Z,12.10
2022-10-31T03:08:09.262Z,11.90
2022-10-31T03:13:27.401Z,11.90
2022-10-31T03:18:43.696Z,11.90
2022-10-31T03:23:47.510Z,11.80
2022-10-31T03:29:00.134Z,11.70
2022-10-31T03:34:03.824Z,11.70
2022-10-31T03:39:09.614Z,11.60
2022-10-31T03:44:19.942Z,11.60
2022-10-31T03:49:22.298Z,11.60
2022-10-31T03:54:37.375Z,11.50
2022-10-31T04:00:08.195Z,11.50
2022-10-31T04:05:11.733Z,11.50
2022-10-31T04:10:15.872Z,11.40
2022-10-31T04:15:18.383Z,11.50
2022-10-31T04:20:30.085Z,11.50
2022-10-31T04:25:31.768Z,11.40
2022-10-31T04:30:33.414Z,11.40
2022-10-31T04:35:35.081Z,11.40
2022-10-31T04:40:36.700Z,11.40
2022-10-31T04:45:38.804Z,11.30
2022-10-31T04:50:40.657Z,11.30
2022-10-31T04:55:42.297Z,11.30
2022-10-31T05:00:43.946Z,11.30
2022-10-31T05:05:45.580Z,11.20
2022-10-31T05:10:47.190Z,11.20
2022-10-31T05:15:50.093Z,11.20
2022-10-31T05:20:51.749Z,11.20
2022-10-31T05:25:53.423Z,11.20
2022-10-31T05:30:55.138Z,11.10
2022-10-31T05:35:56.863Z,11.10
2022-10-31T05:40:59.040Z,11.10
2022-10-31T05:46:00.676Z,11.10
2022-10-31T05:51:02.322Z,11.00
2022-10-31T05:56:04.081Z,11.10
2022-10-31T06:01:08.662Z,11.00
2022-10-31T06:06:10.740Z,11.00
2022-10-31T06:11:12.407Z,11.00
2022-10-31T06:16:14.038Z,11.00
2022-10-31T06:21:18.879Z,11.00
2022-10-31T06:26:20.946Z,11.00
2022-10-31T06:31:22.606Z,11.00
2022-10-31T06:36:24.425Z,11.10
2022-10-31T06:41:26.097Z,11.20
2022-10-31T06:46:27.716Z,11.20
2022-10-31T06:51:29.376Z,11.30
2022-10-31T06:56:31.011Z,11.40
2022-10-31T07:01:32.757Z,11.50
2022-10-31T07:06:34.485Z,11.60
2022-10-31T07:11:36.166Z,11.60
2022-10-31T07:16:37.854Z,11.70
2022-10-31T07:21:39.488Z,11.80
2022-10-31T07:26:43.270Z,11.90
2022-10-31T07:31:47.309Z,12.00
2022-10-31T07:36:48.941Z,12.00
2022-10-31T07:41:51.403Z,12.10
2022-10-31T07:46:53.608Z,12.20
2022-10-31T07:51:56.209Z,12.30
2022-10-31T07:56:57.940Z,12.40
2022-10-31T08:01:59.569Z,12.50
2022-10-31T08:07:01.188Z,12.60
2022-10-31T08:12:03.118Z,12.80
2022-10-31T08:17:04.816Z,12.90
2022-10-31T08:22:06.441Z,13.10
2022-10-31T08:27:08.056Z,13.20
2022-10-31T08:32:09.702Z,13.40
2022-10-31T08:37:11.466Z,13.50
2022-10-31T08:42:13.578Z,13.70
2022-10-31T08:47:15.202Z,13.80
2022-10-31T08:52:16.984Z,14.00
2022-10-31T08:57:18.640Z,14.10
2022-10-31T09:02:20.328Z,14.30
2022-10-31T09:07:22.075Z,14.50
2022-10-31T09:12:24.872Z,14.70
2022-10-31T09:17:27.715Z,14.80
2022-10-31T09:22:29.354Z,15.00
2022-10-31T09:27:30.991Z,15.10
2022-10-31T09:32:32.606Z,15.30
2022-10-31T09:37:34.568Z,15.40
2022-10-31T09:43:15.181Z,15.60
2022-10-31T09:48:25.685Z,15.70
2022-10-31T09:53:43.277Z,15.60
2022-10-31T09:58:48.706Z,15.70
2022-10-31T10:03:53.018Z,15.80
2022-10-31T10:08:55.635Z,15.80
2022-10-31T10:14:34.514Z,15.90
2022-10-31T10:19:42.157Z,15.90
2022-10-31T10:25:14.436Z,16.00
2022-10-31T10:30:27.337Z,16.00
2022-10-31T10:35:33.437Z,16.20
2022-10-31T10:40:35.357Z,16.20
2022-10-31T10:45:57.007Z,16.30
2022-10-31T10:50:59.430Z,16.40
2022-10-31T10:56:17.957Z,16.30
2022-10-31T11:01:19.604Z,16.30
2022-10-31T11:06:27.134Z,16.30
2022-10-31T11:11:31.859Z,16.40
2022-10-31T11:16:43.094Z,16.50
2022-10-31T11:21:52.906Z,16.60
2022-10-31T11:27:20.632Z,16.70
2022-10-31T11:32:25.067Z,16.80
2022-10-31T11:37:33.542Z,16.90
2022-10-31T11:42:43.505Z,16.90
2022-10-31T11:47:49.075Z,17.00
2022-10-31T11:52:52.146Z,17.10
2022-10-31T11:57:56.077Z,17.20
2022-10-31T12:03:36.058Z,17.30
2022-10-31T12:08:39.460Z,17.40
2022-10-31T12:13:59.868Z,17.40
2022-10-31T12:19:31.044Z,17.50
2022-10-31T12:24:38.825Z,17.60
2022-10-31T12:29:52.580Z,17.70
2022-10-31T12:35:15.069Z,17.80
2022-10-31T12:40:42.508Z,17.90
2022-10-31T12:45:59.029Z,18.00
2022-10-31T12:51:30.749Z,18.20
2022-10-31T12:56:38.609Z,18.40
2022-10-31T13:01:51.841Z,18.70
2022-10-31T13:07:02.258Z,18.70
2022-10-31T13:12:10.740Z,18.80
2022-10-31T13:17:28.495Z,18.70
2022-10-31T13:22:36.591Z,18.60
2022-10-31T13:27:53.947Z,18.60
2022-10-31T13:33:13.608Z,18.40
2022-10-31T13:38:15.204Z,18.30
2022-10-31T13:43:47.959Z,18.30
2022-10-31T13:48:49.708Z,18.30
2022-10-31T13:53:51.343Z,18.20
2022-10-31T13:59:21.831Z,18.20
2022-10-31T14:04:28.493Z,18.20
2022-10-31T14:09:51.364Z,18.10
2022-10-31T14:14:59.728Z,18.10
2022-10-31T14:20:11.459Z,18.00
2022-10-31T14:25:36.270Z,17.90
2022-10-31T14:30:37.964Z,17.80
2022-10-31T14:36:16.072Z,17.70
2022-10-31T14:41:42.407Z,17.60
2022-10-31T14:46:49.785Z,17.50
2022-10-31T14:51:52.868Z,17.40
2022-10-31T14:57:05.166Z,17.20
2022-10-31T15:02:27.102Z,17.10
2022-10-31T15:07:32.434Z,17.00
2022-10-31T15:12:39.790Z,16.90
2022-10-31T15:17:45.867Z,16.80
2022-10-31T15:22:48.971Z,16.70
2022-10-31T15:27:52.205Z,16.60
2022-10-31T15:32:58.679Z,16.40
2022-10-31T15:38:02.790Z,16.40
2022-10-31T15:43:07.736Z,16.30
2022-10-31T15:48:19.860Z,16.10
2022-10-31T15:53:44.160Z,16.00
2022-10-31T15:58:48.835Z,16.00
2022-10-31T16:04:22.895Z,15.90
2022-10-31T16:09:25.484Z,15.80
2022-10-31T16:14:30.634Z,15.70
2022-10-31T16:19:36.402Z,15.60
2022-10-31T16:24:47.458Z,15.50
2022-10-31T16:29:49.129Z,15.40
2022-10-31T16:35:17.786Z,15.40
2022-10-31T16:40:19.681Z,15.30
2022-10-31T16:45:23.784Z,15.40
2022-10-31T16:50:27.359Z,15.30
2022-10-31T16:55:29.172Z,15.20
2022-10-31T17:00:31.671Z,15.20
2022-10-31T17:05:33.483Z,15.20
2022-10-31T17:10:35.901Z,15.10
2022-10-31T17:15:45.161Z,15.10
2022-10-31T17:20:47.937Z,15.00
2022-10-31T17:25:49.652Z,14.90
2022-10-31T17:30:51.318Z,14.80
2022-10-31T17:35:53.115Z,14.80
2022-10-31T17:40:54.807Z,14.70
2022-10-31T17:46:00.563Z,14.60
2022-10-31T17:51:04.442Z,14.50
2022-10-31T17:56:10.147Z,14.50
2022-10-31T18:01:14.452Z,14.50
2022-10-31T18:06:16.978Z,14.40
2022-10-31T18:11:21.129Z,14.30
2022-10-31T18:16:23.048Z,14.30
2022-10-31T18:21:25.679Z,14.40
2022-10-31T18:26:28.200Z,14.40
2022-10-31T18:31:29.988Z,14.30
2022-10-31T18:36:31.740Z,14.20
2022-10-31T18:41:33.553Z,14.10
2022-10-31T18:46:35.571Z,14.30
2022-10-31T18:51:37.249Z,14.40
2022-10-31T18:56:38.891Z,14.40
2022-10-31T19:01:40.721Z,14.40
2022-10-31T19:06:42.463Z,14.40
2022-10-31T19:11:44.179Z,14.40
2022-10-31T19:16:45.841Z,14.30
2022-10-31T19:21:47.824Z,14.30
2022-10-31T19:26:49.623Z,14.20
2022-10-31T19:31:51.342Z,14.20
2022-10-31T19:36:53.549Z,14.20
2022-10-31T19:41:55.185Z,14.20
2022-10-31T19:46:56.806Z,14.20
2022-10-31T19:51:58.662Z,14.30
2022-10-31T19:57:00.742Z,14.40
2022-10-31T20:02:02.363Z,14.40
2022-10-31T20:07:04.348Z,14.40
2022-10-31T20:12:07.309Z,14.40
2022-10-31T20:17:09.029Z,14.30
2022-10-31T20:22:11.473Z,14.20
2022-10-31T20:27:13.210Z,14.20
2022-10-31T20:32:15.295Z,14.10
2022-10-31T20:37:16.982Z,14.10
2022-10-31T20:42:18.690Z,14.00
2022-10-31T20:47:23.372Z,13.90
2022-10-31T20:52:26.678Z,13.80
2022-10-31T20:57:28.367Z,13.80
2022-10-31T21:02:30.366Z,13.80
2022-10-31T21:07:32.095Z,13.80
2022-10-31T21:12:33.829Z,13.80
2022-10-31T21:17:35.754Z,13.90
2022-10-31T21:22:37.897Z,13.90
2022-10-31T21:27:39.950Z,13.80
2022-10-31T21:32:42.017Z,13.80
2022-10-31T21:37:43.769Z,13.80
2022-10-31T21:42:45.522Z,13.80
2022-10-31T21:47:48.112Z,13.80
2022-10-31T21:52:49.845Z,13.80
2022-10-31T21:57:51.516Z,13.80
2022-10-31T22:02:53.227Z,13.80
2022-10-31T22:07:54.964Z,13.80
2022-10-31T22:12:57.357Z,13.70
2022-10-31T22:17:59.305Z,13.70
2022-10-31T22:23:01.114Z,13.60
2022-10-31T22:28:06.854Z,13.60
2022-10-31T22:33:08.517Z,13.60
2022-10-31T22:38:10.123Z,13.60
2022-10-31T22:43:11.801Z,13.60
2022-10-31T22:48:13.759Z,13.60
2022-10-31T22:53:15.856Z,13.60
2022-10-31T22:58:17.506Z,13.70
2022-10-31T23:03:19.221Z,13.70
2022-10-31T23:08:20.840Z,13.70
2022-10-31T23:13:41.801Z,13.80
2022-10-31T23:18:50.226Z,13.80
2022-10-31T23:23:52.210Z,13.80
2022-10-31T23:28:53.845Z,13.70
2022-10-31T23:33:55.577Z,13.70
2022-10-31T23:38:57.202Z,13.60
2022-10-31T23:43:58.923Z,13.40
2022-10-31T23:49:00.729Z,13.30
2022-10-31T23:54:02.472Z,13.20
2022-10-31T23:59:04.711Z,13.10
